Time;durP1;ratioP1;P1;durP2;ratioP2;P2;SDS_P1;SDS_P2;PMS_P1;PMS_P2;Temp;Humidity;BMP_temperature;BMP_pressure;BME280_temperature;BME280_humidity;BME280_pressure;Samples;Min_cycle;Max_cycle;Signal;HPM_P1;HPM_P2
2023/05/13 00:00:36;;;;;;;8.43;6.70;;;12.70;99.90;;;;;;5113054;28;20468;-69
2023/05/13 00:03:02;;;;;;;11.60;6.90;;;12.70;99.90;;;;;;5113247;28;20035;-70
2023/05/13 00:05:27;;;;;;;12.18;8.00;;;12.70;99.90;;;;;;5113112;28;20080;-69
2023/05/13 00:07:53;;;;;;;8.23;7.05;;;12.70;99.90;;;;;;5112972;28;20035;-69
2023/05/13 00:10:19;;;;;;;8.80;6.32;;;12.70;99.90;;;;;;5112915;28;20039;-69
2023/05/13 00:12:45;;;;;;;11.32;7.70;;;12.60;99.90;;;;;;5111664;28;20039;-69
2023/05/13 00:15:11;;;;;;;10.32;7.13;;;12.60;99.90;;;;;;5112993;27;20040;-69
2023/05/13 00:17:36;;;;;;;8.90;7.28;;;12.60;99.90;;;;;;5111438;28;20043;-69
2023/05/13 00:20:02;;;;;;;8.68;7.22;;;12.60;99.90;;;;;;5112947;28;20036;-69
2023/05/13 00:22:28;;;;;;;10.65;7.38;;;12.50;99.90;;;;;;5111549;28;20032;-69
2023/05/13 00:24:54;;;;;;;11.30;7.30;;;12.50;99.90;;;;;;5112601;28;20528;-69
2023/05/13 00:27:19;;;;;;;11.38;7.75;;;12.40;99.90;;;;;;5112307;28;20047;-69
2023/05/13 00:29:45;;;;;;;9.80;7.07;;;12.40;99.90;;;;;;5111321;28;20047;-69
2023/05/13 00:32:10;;;;;;;12.90;7.45;;;12.40;99.90;;;;;;5112771;28;20422;-69
2023/05/13 00:34:36;;;;;;;9.93;7.45;;;12.50;99.90;;;;;;5112591;28;20137;-69
2023/05/13 00:37:01;;;;;;;9.55;6.70;;;12.40;99.90;;;;;;5111098;28;20048;-69
2023/05/13 00:39:27;;;;;;;8.10;6.97;;;12.30;99.90;;;;;;5112520;28;20023;-69
2023/05/13 00:41:53;;;;;;;8.35;6.93;;;12.40;99.90;;;;;;5111103;28;20503;-69
2023/05/13 00:44:19;;;;;;;9.98;7.20;;;12.40;99.90;;;;;;5111122;28;20082;-69
2023/05/13 00:46:44;;;;;;;10.95;7.65;;;12.30;99.90;;;;;;5112546;28;20040;-69
2023/05/13 00:49:10;;;;;;;11.57;6.90;;;12.30;99.90;;;;;;5111166;28;20491;-70
2023/05/13 00:51:36;;;;;;;9.60;8.02;;;12.30;99.90;;;;;;5108328;28;20027;-69
2023/05/13 00:54:03;;;;;;;12.05;7.15;;;12.30;99.90;;;;;;5091870;28;20504;-69
2023/05/13 00:56:28;;;;;;;10.20;8.00;;;12.30;99.90;;;;;;5091718;28;20036;-69
2023/05/13 00:58:54;;;;;;;10.85;7.63;;;12.30;99.90;;;;;;5091713;28;20526;-69
2023/05/13 01:01:39;;;;;;;10.50;7.53;;;12.30;99.90;;;;;;5091644;28;20067;-69
2023/05/13 01:04:36;;;;;;;12.10;7.57;;;12.30;99.90;;;;;;5091948;28;20036;-69
2023/05/13 01:07:40;;;;;;;9.57;8.55;;;12.40;99.90;;;;;;5091498;28;20075;-69
2023/05/13 01:10:28;;;;;;;7.90;6.43;;;12.40;99.90;;;;;;5091767;28;20036;-69
2023/05/13 01:12:59;;;;;;;14.57;7.82;;;12.40;99.90;;;;;;5091825;28;20044;-69
2023/05/13 01:15:26;;;;;;;8.65;7.75;;;12.40;99.90;;;;;;5091561;28;20072;-69
2023/05/13 01:18:14;;;;;;;13.38;7.85;;;12.40;99.90;;;;;;5090572;28;20048;-69
2023/05/13 01:20:41;;;;;;;8.30;7.05;;;12.50;99.90;;;;;;5091742;28;20120;-69
2023/05/13 01:23:08;;;;;;;11.40;7.82;;;12.40;99.90;;;;;;5091690;28;20040;-69
2023/05/13 01:25:35;;;;;;;8.90;7.13;;;12.40;99.90;;;;;;5090241;28;20097;-69
2023/05/13 01:28:01;;;;;;;12.68;8.00;;;12.30;99.90;;;;;;5091382;28;20107;-69
2023/05/13 01:30:26;;;;;;;10.55;8.45;;;12.30;99.90;;;;;;5090272;28;20040;-69
2023/05/13 01:32:52;;;;;;;10.57;7.85;;;12.20;99.90;;;;;;5091651;28;20040;-69
2023/05/13 01:35:19;;;;;;;11.63;7.97;;;12.20;99.90;;;;;;5091464;28;20111;-69
2023/05/13 01:37:46;;;;;;;11.48;7.93;;;12.10;99.90;;;;;;5091326;28;20472;-68
2023/05/13 01:40:12;;;;;;;10.80;8.18;;;12.10;99.90;;;;;;5091392;28;20516;-68
2023/05/13 01:42:38;;;;;;;10.02;8.20;;;12.10;99.90;;;;;;5090452;28;20055;-68
2023/05/13 01:45:04;;;;;;;12.30;8.77;;;12.00;99.90;;;;;;5091638;28;20032;-68
2023/05/13 01:47:30;;;;;;;9.45;8.07;;;12.00;99.90;;;;;;5091310;28;20047;-68
2023/05/13 01:49:56;;;;;;;13.82;9.43;;;12.00;99.90;;;;;;5091439;28;20036;-68
2023/05/13 01:52:21;;;;;;;12.90;8.88;;;12.00;99.90;;;;;;5090413;28;20047;-68
2023/05/13 01:54:47;;;;;;;12.20;8.32;;;12.00;99.90;;;;;;5090117;28;20111;-69
2023/05/13 01:57:12;;;;;;;13.82;9.35;;;12.00;99.90;;;;;;5091242;28;20044;-68
2023/05/13 01:59:38;;;;;;;14.65;9.25;;;11.90;99.90;;;;;;5091440;28;20399;-70
2023/05/13 02:02:04;;;;;;;12.35;8.48;;;11.90;99.90;;;;;;5091081;28;20059;-69
2023/05/13 02:04:30;;;;;;;9.93;7.65;;;11.90;99.90;;;;;;5091369;28;20181;-68
2023/05/13 02:06:55;;;;;;;10.73;8.80;;;11.90;99.90;;;;;;5089820;28;20726;-68
2023/05/13 02:09:21;;;;;;;10.98;8.80;;;11.80;99.90;;;;;;5092347;28;20111;-68
2023/05/13 02:11:46;;;;;;;13.02;8.60;;;11.80;99.90;;;;;;5095028;28;20487;-68
2023/05/13 02:14:12;;;;;;;10.27;8.10;;;11.80;99.90;;;;;;5093588;28;20036;-68
2023/05/13 02:16:38;;;;;;;11.32;9.30;;;11.80;99.90;;;;;;5094825;28;20032;-68
2023/05/13 02:19:03;;;;;;;11.60;8.45;;;11.70;99.90;;;;;;5094707;28;20602;-68
2023/05/13 02:21:29;;;;;;;11.27;8.25;;;11.70;99.90;;;;;;5093682;28;20051;-68
2023/05/13 02:23:55;;;;;;;13.40;9.57;;;11.70;99.90;;;;;;5093603;28;20047;-69
2023/05/13 02:26:21;;;;;;;12.63;10.13;;;11.70;99.90;;;;;;5094495;28;20411;-68
2023/05/13 02:28:46;;;;;;;14.23;9.10;;;11.70;99.90;;;;;;5093244;28;20036;-68
2023/05/13 02:31:12;;;;;;;13.70;9.90;;;11.70;99.90;;;;;;5093292;28;20089;-68
2023/05/13 02:33:37;;;;;;;14.02;10.18;;;11.60;99.90;;;;;;5094616;28;20479;-69
2023/05/13 02:36:03;;;;;;;14.00;10.02;;;11.60;99.90;;;;;;5094361;28;20070;-70
2023/05/13 02:38:29;;;;;;;12.48;9.38;;;11.50;99.90;;;;;;5094169;28;20388;-69
2023/05/13 02:40:54;;;;;;;11.05;8.60;;;11.50;99.90;;;;;;5094461;28;20036;-69
2023/05/13 02:43:22;;;;;;;13.57;10.35;;;11.60;99.90;;;;;;5094477;28;20081;-68
2023/05/13 02:45:48;;;;;;;11.85;8.82;;;11.60;99.90;;;;;;5092909;28;20044;-68
2023/05/13 02:48:13;;;;;;;13.25;9.77;;;11.60;99.90;;;;;;5094084;28;20062;-69
2023/05/13 02:50:39;;;;;;;12.82;9.70;;;11.60;99.90;;;;;;5094119;28;20058;-68
2023/05/13 02:53:05;;;;;;;12.38;9.77;;;11.60;99.90;;;;;;5092772;28;20040;-68
2023/05/13 02:55:31;;;;;;;14.38;10.10;;;11.60;99.90;;;;;;5093867;28;20100;-68
2023/05/13 02:57:57;;;;;;;14.95;10.63;;;11.60;99.90;;;;;;5092616;28;20539;-68
2023/05/13 03:00:22;;;;;;;11.98;10.45;;;11.50;99.90;;;;;;5093837;28;20044;-68
2023/05/13 03:02:48;;;;;;;15.30;10.50;;;11.40;99.90;;;;;;5094058;28;20057;-68
2023/05/13 03:05:14;;;;;;;13.50;9.63;;;11.40;99.90;;;;;;5093801;28;20051;-68
2023/05/13 03:07:39;;;;;;;14.20;10.00;;;11.40;99.90;;;;;;5093607;28;20044;-70
2023/05/13 03:10:06;;;;;;;15.70;10.98;;;11.40;99.90;;;;;;5092471;28;20039;-70
2023/05/13 03:12:31;;;;;;;13.27;10.82;;;11.40;99.90;;;;;;5093964;28;20040;-70
2023/05/13 03:14:57;;;;;;;14.95;10.60;;;11.30;99.90;;;;;;5093777;28;20032;-71
2023/05/13 03:17:24;;;;;;;13.95;11.23;;;11.20;99.90;;;;;;5093535;28;20063;-71
2023/05/13 03:19:49;;;;;;;13.57;10.90;;;11.10;99.90;;;;;;5093477;28;20062;-71
2023/05/13 03:22:15;;;;;;;18.23;12.95;;;11.20;99.90;;;;;;5092577;28;20040;-71
2023/05/13 03:24:42;;;;;;;16.90;12.40;;;11.10;99.90;;;;;;5093491;28;20051;-70
2023/05/13 03:27:07;;;;;;;16.17;12.35;;;11.10;99.90;;;;;;5093294;28;20088;-70
2023/05/13 03:29:33;;;;;;;15.52;11.80;;;11.10;99.90;;;;;;5093298;28;20122;-68
2023/05/13 03:31:58;;;;;;;16.48;12.23;;;11.10;99.90;;;;;;5092088;28;20044;-68
2023/05/13 03:34:24;;;;;;;14.05;12.20;;;11.10;99.90;;;;;;5093196;28;20511;-68
2023/05/13 03:36:49;;;;;;;17.08;12.60;;;11.10;99.90;;;;;;5092837;28;20535;-69
2023/05/13 03:39:15;;;;;;;18.27;13.68;;;11.10;99.90;;;;;;5091627;28;20048;-69
2023/05/13 03:41:41;;;;;;;16.98;14.18;;;11.00;99.90;;;;;;5091791;28;20034;-68
2023/05/13 03:44:06;;;;;;;16.55;13.07;;;11.10;99.90;;;;;;5093121;28;20093;-68
2023/05/13 03:46:32;;;;;;;17.83;13.52;;;11.10;99.90;;;;;;5099827;28;20115;-69
2023/05/13 03:48:58;;;;;;;19.48;14.32;;;11.10;99.90;;;;;;5114018;28;20044;-69
2023/05/13 03:51:24;;;;;;;19.75;14.00;;;11.10;99.90;;;;;;5114047;28;20130;-68
2023/05/13 03:53:49;;;;;;;25.33;14.98;;;11.10;99.90;;;;;;5113372;28;20071;-68
2023/05/13 03:56:15;;;;;;;16.25;12.70;;;11.10;99.90;;;;;;5113356;28;20118;-68
2023/05/13 03:58:41;;;;;;;17.27;12.75;;;11.10;99.90;;;;;;5111857;28;20443;-70
2023/05/13 04:01:07;;;;;;;18.17;13.13;;;11.10;99.90;;;;;;5113308;28;20058;-68
2023/05/13 04:03:33;;;;;;;16.90;13.00;;;11.10;99.90;;;;;;5112156;28;20079;-69
2023/05/13 04:05:59;;;;;;;15.68;12.63;;;11.10;99.90;;;;;;5112869;28;20078;-69
2023/05/13 04:08:25;;;;;;;16.42;11.63;;;11.20;99.90;;;;;;5112854;28;20044;-69
2023/05/13 04:10:51;;;;;;;20.33;12.73;;;11.20;99.90;;;;;;5111929;28;20037;-68
2023/05/13 04:13:17;;;;;;;14.07;11.90;;;11.30;99.90;;;;;;5113292;28;20085;-69
2023/05/13 04:15:43;;;;;;;15.73;11.43;;;11.30;99.90;;;;;;5111482;28;20050;-69
2023/05/13 04:18:08;;;;;;;16.77;11.35;;;11.30;99.90;;;;;;5112795;28;20036;-68
2023/05/13 04:20:37;;;;;;;17.45;12.43;;;11.40;99.90;;;;;;5112759;28;20084;-69
2023/05/13 04:23:02;;;;;;;15.90;11.38;;;11.40;99.90;;;;;;5112726;28;20057;-69
2023/05/13 04:25:28;;;;;;;13.52;10.48;;;11.40;99.90;;;;;;5112945;28;20039;-69
2023/05/13 04:27:54;;;;;;;18.45;12.85;;;11.40;99.90;;;;;;5112809;28;20036;-69
2023/05/13 04:30:19;;;;;;;15.90;11.23;;;11.50;99.90;;;;;;5112761;28;20047;-68
2023/05/13 04:32:45;;;;;;;19.20;11.73;;;11.50;99.90;;;;;;5112440;28;20047;-69
2023/05/13 04:35:10;;;;;;;16.90;11.77;;;11.50;99.90;;;;;;5112377;28;20070;-69
2023/05/13 04:37:36;;;;;;;16.58;11.38;;;11.60;99.90;;;;;;5112288;28;20384;-70
2023/05/13 04:40:02;;;;;;;18.02;11.65;;;11.60;99.90;;;;;;5112558;28;20027;-68
2023/05/13 04:42:28;;;;;;;17.30;12.30;;;11.60;99.90;;;;;;5112670;28;20089;-68
2023/05/13 04:44:53;;;;;;;19.02;11.68;;;11.70;99.90;;;;;;5112457;28;20137;-69
2023/05/13 04:47:19;;;;;;;16.75;11.60;;;11.80;99.90;;;;;;5112234;28;20071;-69
2023/05/13 04:49:44;;;;;;;13.32;9.93;;;11.80;99.90;;;;;;5112205;28;20047;-69
2023/05/13 04:52:12;;;;;;;16.13;10.93;;;12.00;99.90;;;;;;5112380;28;20054;-69
2023/05/13 04:54:38;;;;;;;16.73;11.15;;;12.10;99.90;;;;;;5111004;28;20050;-69
2023/05/13 04:57:04;;;;;;;14.80;10.48;;;12.20;99.90;;;;;;5112208;28;20071;-69
2023/05/13 04:59:30;;;;;;;16.95;10.68;;;12.40;99.90;;;;;;5112385;28;20451;-68
2023/05/13 05:01:55;;;;;;;16.73;10.43;;;12.50;99.90;;;;;;5141312;22;20134;-80
2023/05/13 05:04:21;;;;;;;16.27;10.25;;;12.70;99.90;;;;;;5119593;28;20072;-80
2023/05/13 05:06:47;;;;;;;11.90;10.07;;;12.90;99.90;;;;;;5107164;28;20122;-80
2023/05/13 05:09:13;;;;;;;11.27;9.90;;;13.00;99.90;;;;;;5128604;27;20066;-81
2023/05/13 05:11:38;;;;;;;20.17;10.63;;;13.20;99.90;;;;;;5118875;28;20062;-81
2023/05/13 05:14:04;;;;;;;17.50;11.35;;;13.40;99.90;;;;;;5119504;28;20035;-81
2023/05/13 05:16:29;;;;;;;19.15;11.30;;;13.50;99.90;;;;;;5102903;28;20044;-81
2023/05/13 05:18:55;;;;;;;16.33;11.10;;;13.70;99.90;;;;;;5120867;28;20035;-80
2023/05/13 05:21:20;;;;;;;15.57;10.90;;;13.80;99.90;;;;;;5117678;28;20027;-80
2023/05/13 05:23:46;;;;;;;20.83;10.88;;;14.00;99.90;;;;;;5113169;28;20110;-80
2023/05/13 05:26:11;;;;;;;10.52;9.23;;;14.10;99.90;;;;;;5110013;28;20043;-80
2023/05/13 05:28:38;;;;;;;15.90;9.20;;;14.20;99.90;;;;;;5108174;28;20100;-80
2023/05/13 05:31:04;;;;;;;12.07;8.82;;;14.20;99.90;;;;;;5087828;28;20082;-80
2023/05/13 05:33:30;;;;;;;12.40;8.57;;;14.30;99.90;;;;;;5112333;28;20039;-79
2023/05/13 05:35:56;;;;;;;12.23;9.13;;;14.50;99.90;;;;;;5092427;28;20064;-80
2023/05/13 05:38:24;;;;;;;11.73;8.40;;;14.70;99.90;;;;;;5116272;28;20039;-80
2023/05/13 05:40:49;;;;;;;10.55;7.63;;;14.80;99.90;;;;;;5116398;28;20070;-80
2023/05/13 05:43:15;;;;;;;10.77;7.95;;;15.00;99.90;;;;;;5115891;27;20465;-79
2023/05/13 05:45:41;;;;;;;13.35;8.25;;;15.20;99.90;;;;;;5102546;27;20062;-80
2023/05/13 05:48:07;;;;;;;9.57;8.02;;;15.30;99.90;;;;;;5119982;27;20083;-80
2023/05/13 05:50:33;;;;;;;12.50;7.95;;;15.50;99.90;;;;;;5102826;27;20043;-79
2023/05/13 05:52:59;;;;;;;10.95;7.85;;;15.70;99.90;;;;;;5119747;27;20039;-79
2023/05/13 05:55:27;;;;;;;10.00;8.20;;;15.80;99.90;;;;;;5119648;27;20039;-80
2023/05/13 05:57:52;;;;;;;11.73;7.90;;;15.90;99.90;;;;;;5119900;27;20100;-80
2023/05/13 06:00:18;;;;;;;13.38;8.43;;;16.00;99.90;;;;;;5102035;27;20566;-80
2023/05/13 06:02:44;;;;;;;15.80;7.82;;;16.20;99.90;;;;;;5111129;27;20035;-80
2023/05/13 06:05:10;;;;;;;11.30;8.43;;;16.40;99.90;;;;;;5119466;27;20092;-80
2023/05/13 06:07:36;;;;;;;13.52;8.27;;;16.60;99.90;;;;;;5119596;27;20039;-80
2023/05/13 06:10:01;;;;;;;12.20;8.15;;;16.80;99.90;;;;;;5102819;27;20039;-80
2023/05/13 06:12:27;;;;;;;11.73;8.02;;;17.00;99.90;;;;;;5119268;27;20063;-80
2023/05/13 06:14:53;;;;;;;12.65;7.32;;;16.80;99.90;;;;;;5119276;27;20043;-80
2023/05/13 06:17:18;;;;;;;11.82;7.40;;;17.20;99.90;;;;;;5101726;27;20398;-79
2023/05/13 06:19:44;;;;;;;13.65;7.38;;;17.40;99.90;;;;;;5119573;27;20039;-80
2023/05/13 06:22:10;;;;;;;10.23;8.88;;;17.70;99.90;;;;;;5119397;27;20398;-79
2023/05/13 06:24:36;;;;;;;12.07;6.93;;;17.80;99.90;;;;;;5119925;27;20117;-80
2023/05/13 06:27:02;;;;;;;13.20;7.25;;;18.10;99.90;;;;;;5119327;27;20447;-80
2023/05/13 06:29:28;;;;;;;9.57;7.22;;;18.30;99.90;;;;;;5118866;27;20126;-80
2023/05/13 06:31:54;;;;;;;10.63;7.68;;;18.50;99.90;;;;;;5102225;27;20066;-80
2023/05/13 06:34:19;;;;;;;15.95;7.25;;;18.50;99.00;;;;;;5119595;27;20031;-80
2023/05/13 06:36:45;;;;;;;10.70;7.53;;;18.60;99.00;;;;;;5121066;27;20038;-80
2023/05/13 06:39:11;;;;;;;11.70;7.38;;;18.70;99.10;;;;;;5102553;27;20094;-80
2023/05/13 06:41:38;;;;;;;9.80;6.95;;;18.90;98.90;;;;;;5102486;27;20046;-80
2023/05/13 06:44:04;;;;;;;11.30;6.68;;;18.90;97.50;;;;;;5103164;27;20080;-80
2023/05/13 06:46:30;;;;;;;9.32;7.13;;;19.10;96.60;;;;;;5121447;27;20043;-80
2023/05/13 06:48:56;;;;;;;14.63;6.65;;;19.30;96.60;;;;;;5105907;27;20035;-80
2023/05/13 06:51:23;;;;;;;11.85;7.68;;;19.40;95.50;;;;;;5120320;27;20409;-80
2023/05/13 06:53:48;;;;;;;8.75;6.57;;;19.20;96.00;;;;;;5113485;27;20039;-80
2023/05/13 06:56:14;;;;;;;13.30;7.38;;;19.50;96.80;;;;;;5102624;27;20045;-82
2023/05/13 06:58:41;;;;;;;10.18;6.47;;;19.50;96.60;;;;;;5120288;27;20053;-80
2023/05/13 07:01:06;;;;;;;12.57;6.68;;;19.80;96.40;;;;;;5103766;27;20075;-80
2023/05/13 07:03:32;;;;;;;9.40;6.45;;;20.00;96.20;;;;;;5120527;27;20046;-80
2023/05/13 07:05:57;;;;;;;8.82;6.18;;;20.10;95.40;;;;;;5104558;27;20038;-81
2023/05/13 07:08:23;;;;;;;12.10;6.55;;;20.30;94.70;;;;;;5104420;27;20099;-81
2023/05/13 07:10:48;;;;;;;9.63;7.07;;;20.50;94.90;;;;;;5104091;27;20035;-81
2023/05/13 07:13:14;;;;;;;11.43;6.53;;;20.30;95.20;;;;;;5103007;27;20041;-80
2023/05/13 07:15:40;;;;;;;10.32;6.95;;;20.50;93.60;;;;;;5120162;27;20044;-80
2023/05/13 07:18:05;;;;;;;8.30;5.63;;;20.60;93.90;;;;;;5117728;27;20046;-78
2023/05/13 07:20:31;;;;;;;10.95;6.60;;;20.60;92.70;;;;;;5100784;27;20122;-79
2023/05/13 07:22:57;;;;;;;13.93;6.88;;;20.70;92.00;;;;;;5116763;27;20402;-79
2023/05/13 07:25:23;;;;;;;9.10;5.78;;;20.80;91.10;;;;;;5099692;27;20138;-80
2023/05/13 07:27:48;;;;;;;9.75;6.10;;;20.80;91.00;;;;;;5117406;27;20035;-79
2023/05/13 07:30:14;;;;;;;9.55;5.72;;;20.90;91.80;;;;;;5099712;27;20096;-79
2023/05/13 07:32:40;;;;;;;7.43;5.15;;;21.10;92.20;;;;;;5116159;27;20058;-79
2023/05/13 07:35:06;;;;;;;7.93;5.40;;;21.10;91.60;;;;;;5116163;27;20046;-74
2023/05/13 07:37:32;;;;;;;5.75;4.90;;;21.10;90.20;;;;;;5115443;27;20473;-76
2023/05/13 07:39:57;;;;;;;9.75;5.50;;;21.10;88.60;;;;;;5098952;27;20067;-75
2023/05/13 07:42:24;;;;;;;8.23;5.63;;;20.70;89.70;;;;;;5116028;27;20042;-75
2023/05/13 07:44:51;;;;;;;8.32;5.13;;;20.80;87.60;;;;;;5098903;27;20099;-75
2023/05/13 07:47:17;;;;;;;9.57;5.53;;;20.80;85.80;;;;;;5115475;27;20517;-75
2023/05/13 07:49:43;;;;;;;8.88;5.72;;;20.90;87.10;;;;;;5098862;27;20039;-76
2023/05/13 07:52:08;;;;;;;7.50;5.00;;;21.00;87.70;;;;;;5134125;27;20023;-75
2023/05/13 07:54:34;;;;;;;9.07;5.57;;;20.80;87.20;;;;;;5098599;27;20037;-75
2023/05/13 07:56:59;;;;;;;8.02;5.35;;;20.90;86.90;;;;;;5115159;27;20046;-75
2023/05/13 07:59:25;;;;;;;7.05;5.18;;;20.90;85.40;;;;;;5115364;27;20039;-73
2023/05/13 08:01:51;;;;;;;7.40;4.72;;;21.20;85.50;;;;;;5115144;27;20505;-72
2023/05/13 08:04:17;;;;;;;7.18;5.20;;;21.50;86.80;;;;;;5097194;27;20031;-71
2023/05/13 08:06:42;;;;;;;9.55;4.28;;;21.60;86.30;;;;;;5114552;27;20039;-72
2023/05/13 08:09:11;;;;;;;6.78;4.65;;;21.80;84.20;;;;;;5114980;27;20043;-72
2023/05/13 08:11:36;;;;;;;11.57;5.10;;;21.80;81.40;;;;;;5115284;27;20470;-71
2023/05/13 08:14:03;;;;;;;8.93;5.13;;;21.70;79.30;;;;;;5097831;27;20117;-71
2023/05/13 08:16:29;;;;;;;5.38;4.10;;;21.60;77.50;;;;;;5114871;27;20043;-71
2023/05/13 08:18:54;;;;;;;7.38;4.68;;;21.70;78.50;;;;;;5110898;27;20118;-71
2023/05/13 08:21:20;;;;;;;7.53;4.80;;;21.90;79.00;;;;;;5097091;28;20035;-71
2023/05/13 08:23:45;;;;;;;7.72;3.92;;;21.80;78.60;;;;;;5094616;28;20084;-71
2023/05/13 08:26:11;;;;;;;7.70;4.60;;;21.90;75.60;;;;;;5101664;27;20636;-72
2023/05/13 08:28:37;;;;;;;5.95;4.22;;;22.10;73.90;;;;;;5089086;27;20046;-71
2023/05/13 08:31:03;;;;;;;6.43;4.25;;;22.20;75.20;;;;;;5114783;27;20122;-71
2023/05/13 08:33:29;;;;;;;8.32;4.35;;;22.20;73.70;;;;;;5133108;27;20119;-71
2023/05/13 08:35:55;;;;;;;5.32;3.70;;;22.10;72.80;;;;;;5133102;27;20040;-71
2023/05/13 08:38:21;;;;;;;9.02;4.22;;;22.20;71.60;;;;;;5132940;27;20155;-72
2023/05/13 08:40:47;;;;;;;10.25;4.68;;;22.30;71.90;;;;;;5133005;27;20109;-71
2023/05/13 08:43:15;;;;;;;4.95;4.00;;;22.20;69.40;;;;;;5114727;27;20060;-71
2023/05/13 08:45:44;;;;;;;5.90;3.97;;;22.30;69.10;;;;;;5133041;27;20120;-71
2023/05/13 08:48:10;;;;;;;7.20;3.83;;;22.30;70.00;;;;;;5132965;27;20401;-71
2023/05/13 08:50:37;;;;;;;7.63;4.57;;;22.40;68.50;;;;;;5114387;27;20046;-71
2023/05/13 08:53:03;;;;;;;8.85;4.88;;;22.50;69.60;;;;;;5114415;27;20619;-71
2023/05/13 08:55:29;;;;;;;8.25;3.85;;;22.40;70.90;;;;;;5114222;27;20043;-71
2023/05/13 08:57:55;;;;;;;6.57;4.43;;;22.60;68.20;;;;;;5114225;27;20031;-71
2023/05/13 09:00:20;;;;;;;6.32;4.35;;;22.60;66.50;;;;;;5097160;27;20043;-71
2023/05/13 09:02:46;;;;;;;7.90;4.07;;;22.70;67.40;;;;;;5097707;27;20062;-71
2023/05/13 09:05:13;;;;;;;10.07;4.25;;;22.90;67.50;;;;;;5114309;27;20041;-71
2023/05/13 09:07:39;;;;;;;6.18;3.55;;;22.90;67.20;;;;;;5114160;27;20052;-71
2023/05/13 09:10:05;;;;;;;8.15;3.58;;;22.90;66.70;;;;;;5114143;28;20039;-71
2023/05/13 09:12:51;;;;;;;8.20;3.20;;;22.90;65.90;;;;;;5114420;28;20458;-71
2023/05/13 09:15:19;;;;;;;8.85;3.40;;;23.20;65.30;;;;;;5113881;28;20040;-71
2023/05/13 09:17:48;;;;;;;6.00;3.75;;;23.10;62.90;;;;;;5114144;27;20099;-71
2023/05/13 09:20:16;;;;;;;6.38;3.42;;;23.00;61.00;;;;;;5135503;27;20387;-71
2023/05/13 09:22:49;;;;;;;9.27;4.15;;;23.00;61.40;;;;;;5136749;27;20035;-71
2023/05/13 09:25:16;;;;;;;8.27;3.75;;;23.30;62.90;;;;;;5118216;27;20039;-70
2023/05/13 09:27:45;;;;;;;7.28;3.55;;;23.00;63.40;;;;;;5118104;27;20043;-71
2023/05/13 09:30:11;;;;;;;7.15;3.95;;;22.80;61.80;;;;;;5118346;27;20430;-71
2023/05/13 09:32:38;;;;;;;5.65;4.03;;;22.90;61.90;;;;;;5118141;27;20041;-71
2023/05/13 09:35:17;;;;;;;5.93;4.05;;;22.90;62.10;;;;;;5136337;27;20054;-71
2023/05/13 09:37:47;;;;;;;5.28;3.47;;;22.90;65.70;;;;;;5136478;27;20691;-71
2023/05/13 09:40:16;;;;;;;7.78;4.10;;;23.00;62.30;;;;;;5117966;27;20119;-71
2023/05/13 09:42:44;;;;;;;6.47;4.35;;;22.90;63.10;;;;;;5117834;27;20039;-70
2023/05/13 09:45:14;;;;;;;8.07;4.10;;;22.80;65.50;;;;;;5117780;27;20047;-70
2023/05/13 09:47:40;;;;;;;9.77;4.75;;;22.90;64.30;;;;;;5136168;27;20091;-71
2023/05/13 09:50:08;;;;;;;7.65;5.53;;;22.60;65.90;;;;;;5117827;27;20126;-71
2023/05/13 09:52:35;;;;;;;6.25;4.30;;;22.70;69.30;;;;;;5100860;27;20039;-71
2023/05/13 09:55:05;;;;;;;8.30;5.38;;;22.70;69.00;;;;;;5113060;28;20046;-71
2023/05/13 09:57:30;;;;;;;8.35;5.28;;;22.40;68.70;;;;;;5097006;28;20035;-71
2023/05/13 09:59:57;;;;;;;6.07;4.40;;;22.50;68.10;;;;;;5115405;28;20028;-70
2023/05/13 10:02:24;;;;;;;7.05;4.78;;;22.70;68.20;;;;;;5096884;28;20090;-71
2023/05/13 10:04:50;;;;;;;7.32;4.93;;;22.70;68.00;;;;;;5097230;28;20440;-71
2023/05/13 10:07:23;;;;;;;7.07;4.88;;;22.60;68.10;;;;;;5097112;28;20043;-70
2023/05/13 10:09:50;;;;;;;7.20;4.53;;;22.60;71.50;;;;;;5115564;28;20046;-69
2023/05/13 10:12:20;;;;;;;10.48;4.80;;;22.40;72.80;;;;;;5115518;28;20402;-70
2023/05/13 10:14:49;;;;;;;9.60;5.20;;;22.50;70.90;;;;;;5096782;28;20051;-70
2023/05/13 10:17:15;;;;;;;9.95;4.72;;;22.30;70.30;;;;;;5096778;28;20046;-70
2023/05/13 10:19:41;;;;;;;10.32;4.30;;;22.20;70.40;;;;;;5096898;28;20031;-69
2023/05/13 10:22:07;;;;;;;8.35;5.60;;;22.20;71.10;;;;;;5096223;28;20050;-69
2023/05/13 10:24:34;;;;;;;7.70;4.68;;;22.30;71.90;;;;;;5079303;28;20130;-69
2023/05/13 10:27:00;;;;;;;9.38;5.10;;;22.20;71.40;;;;;;5096135;28;20039;-69
2023/05/13 10:29:27;;;;;;;7.15;4.75;;;22.30;72.40;;;;;;5078799;28;20043;-69
2023/05/13 10:31:54;;;;;;;8.18;4.65;;;22.30;71.80;;;;;;5095245;28;20040;-72
2023/05/13 10:34:21;;;;;;;8.38;4.45;;;22.20;69.10;;;;;;5096343;28;20567;-72
2023/05/13 10:37:05;;;;;;;7.68;5.32;;;22.20;69.60;;;;;;5096442;28;20138;-71
2023/05/13 10:39:43;;;;;;;9.57;4.97;;;22.10;72.80;;;;;;5097179;28;20044;-71
2023/05/13 10:42:33;;;;;;;6.32;4.43;;;22.10;73.90;;;;;;5096467;28;20042;-71
2023/05/13 10:44:59;;;;;;;6.70;4.70;;;22.10;75.00;;;;;;5096580;28;20035;-71
2023/05/13 10:47:26;;;;;;;8.40;4.80;;;22.00;73.50;;;;;;5114370;28;20050;-71
2023/05/13 10:49:52;;;;;;;8.43;4.47;;;22.00;72.60;;;;;;5114600;28;20124;-71
2023/05/13 10:52:18;;;;;;;6.25;4.72;;;22.20;73.70;;;;;;5095995;28;20079;-71
2023/05/13 10:55:01;;;;;;;9.23;4.95;;;22.20;73.10;;;;;;5096189;28;20043;-70
2023/05/13 10:57:37;;;;;;;8.55;4.55;;;22.30;76.70;;;;;;5096283;28;20441;-70
2023/05/13 11:00:16;;;;;;;6.65;4.25;;;22.20;77.20;;;;;;5079771;28;20102;-70
2023/05/13 11:02:42;;;;;;;3.60;3.00;;;22.30;74.30;;;;;;5096405;28;20045;-71
2023/05/13 11:05:08;;;;;;;7.55;3.00;;;22.40;67.90;;;;;;5078992;28;20074;-73
2023/05/13 11:07:40;;;;;;;4.38;3.10;;;22.40;64.10;;;;;;5078864;28;20051;-73
2023/05/13 11:10:31;;;;;;;3.85;2.80;;;22.30;62.00;;;;;;5095627;28;20448;-73
2023/05/13 11:13:15;;;;;;;6.43;2.75;;;22.20;58.40;;;;;;5079256;28;20043;-73
2023/05/13 11:15:47;;;;;;;7.22;3.05;;;22.20;60.30;;;;;;5078902;28;20035;-73
2023/05/13 11:18:13;;;;;;;4.90;3.05;;;22.20;59.80;;;;;;5095918;28;20035;-74
2023/05/13 11:20:39;;;;;;;5.60;3.33;;;22.20;59.00;;;;;;5095876;28;20057;-73
2023/05/13 11:23:07;;;;;;;6.75;3.35;;;22.20;58.40;;;;;;5078729;28;20491;-73
2023/05/13 11:25:33;;;;;;;4.72;3.25;;;22.20;57.60;;;;;;5095438;28;20507;-74
2023/05/13 11:27:58;;;;;;;8.23;2.90;;;22.20;57.80;;;;;;5095430;28;20043;-73
2023/05/13 11:30:27;;;;;;;4.38;3.33;;;22.20;57.40;;;;;;5079031;28;20036;-73
2023/05/13 11:32:57;;;;;;;11.10;3.80;;;22.20;57.30;;;;;;5095473;28;20036;-73
2023/05/13 11:35:31;;;;;;;6.10;3.38;;;22.10;57.70;;;;;;5078373;28;20047;-73
2023/05/13 11:37:59;;;;;;;3.90;3.20;;;22.10;57.10;;;;;;5095574;28;20371;-73
2023/05/13 11:40:27;;;;;;;3.03;2.65;;;22.10;56.80;;;;;;5095270;28;20043;-73
2023/05/13 11:42:53;;;;;;;8.88;3.33;;;22.10;56.10;;;;;;5094480;28;20556;-73
2023/05/13 11:45:20;;;;;;;7.80;2.85;;;22.10;56.10;;;;;;5095438;28;20043;-73
2023/05/13 11:47:46;;;;;;;7.00;3.50;;;22.20;57.90;;;;;;5095137;28;20044;-73
2023/05/13 11:50:28;;;;;;;7.57;3.03;;;22.30;57.70;;;;;;5095140;28;20447;-73
2023/05/13 11:52:56;;;;;;;7.97;3.83;;;22.30;59.10;;;;;;5095045;28;20498;-74
2023/05/13 11:55:26;;;;;;;4.55;3.40;;;22.40;59.00;;;;;;5078188;28;20039;-73
2023/05/13 11:57:52;;;;;;;5.55;3.45;;;22.30;58.60;;;;;;5095143;28;20406;-73
2023/05/13 12:00:30;;;;;;;8.05;3.47;;;22.50;58.20;;;;;;5094753;28;20038;-73
2023/05/13 12:02:57;;;;;;;5.90;3.80;;;22.60;60.40;;;;;;5077934;28;20035;-73
2023/05/13 12:05:23;;;;;;;8.80;4.22;;;22.70;62.70;;;;;;5095027;28;20040;-73
2023/05/13 12:07:49;;;;;;;6.78;4.18;;;22.40;64.50;;;;;;5095015;28;20471;-73
2023/05/13 12:10:15;;;;;;;7.93;3.60;;;22.30;67.10;;;;;;5077898;28;20337;-73
2023/05/13 12:12:45;;;;;;;6.53;4.15;;;22.10;68.70;;;;;;5094790;28;20036;-73
2023/05/13 12:15:14;;;;;;;21.60;5.55;;;22.00;70.20;;;;;;5094765;28;20533;-73
2023/05/13 12:17:41;;;;;;;9.10;4.80;;;21.80;72.50;;;;;;5077486;28;20129;-73
2023/05/13 12:20:09;;;;;;;6.28;4.18;;;21.70;75.50;;;;;;5094621;28;20035;-73
2023/05/13 12:22:41;;;;;;;6.13;3.83;;;21.90;77.70;;;;;;5094847;28;20376;-73
2023/05/13 12:25:32;;;;;;;8.13;4.63;;;21.90;77.40;;;;;;5094802;28;20051;-73
2023/05/13 12:28:23;;;;;;;8.45;3.75;;;21.60;73.50;;;;;;5094695;28;20048;-76
2023/05/13 12:30:55;;;;;;;6.47;5.05;;;21.70;75.40;;;;;;5094974;28;20396;-73
2023/05/13 12:33:22;;;;;;;6.93;5.05;;;21.90;79.10;;;;;;5092710;28;20125;-74
2023/05/13 12:35:50;;;;;;;8.25;4.25;;;21.70;82.20;;;;;;5094061;28;20408;-74
2023/05/13 12:38:21;;;;;;;8.85;3.90;;;21.50;81.20;;;;;;5077234;28;20040;-74
2023/05/13 12:40:47;;;;;;;8.35;4.38;;;21.60;80.00;;;;;;5077247;28;20039;-74